createdAt,value
2023-04-11T00:01:24.042Z,7.18
2023-04-11T00:03:51.193Z,7.50
2023-04-11T00:06:18.044Z,6.70
2023-04-11T00:08:44.888Z,6.33
2023-04-11T00:11:11.698Z,6.05
2023-04-11T00:13:38.571Z,6.32
2023-04-11T00:16:05.845Z,8.00
2023-04-11T00:18:32.768Z,7.78
2023-04-11T00:20:59.553Z,8.03
2023-04-11T00:23:26.380Z,7.43
2023-04-11T00:25:53.221Z,6.72
2023-04-11T00:28:20.053Z,5.93
2023-04-11T00:30:46.934Z,5.65
2023-04-11T00:33:13.854Z,5.80
2023-04-11T00:35:41.148Z,5.80
2023-04-11T00:38:08.019Z,5.85
2023-04-11T00:40:34.930Z,6.32
2023-04-11T00:43:01.762Z,7.40
2023-04-11T00:45:28.790Z,7.90
2023-04-11T00:47:55.938Z,8.00
2023-04-11T00:50:22.942Z,8.40
2023-04-11T00:52:51.676Z,7.32
2023-04-11T00:55:18.583Z,7.38
2023-04-11T00:57:45.460Z,6.80
2023-04-11T01:00:13.204Z,7.05
2023-04-11T01:02:41.198Z,7.22
2023-04-11T01:05:11.525Z,6.95
2023-04-11T01:07:40.766Z,6.90
2023-04-11T01:10:09.251Z,6.33
2023-04-11T01:12:38.251Z,6.72
2023-04-11T01:15:06.423Z,7.10
2023-04-11T01:17:33.392Z,7.82
2023-04-11T01:20:00.887Z,7.82
2023-04-11T01:22:28.830Z,6.77
2023-04-11T01:24:55.728Z,6.90
2023-04-11T01:27:22.619Z,6.43
2023-04-11T01:29:49.434Z,6.20
2023-04-11T01:32:16.712Z,6.78
2023-04-11T01:34:46.071Z,6.50
2023-04-11T01:37:13.145Z,6.10
2023-04-11T01:39:40.104Z,6.22
2023-04-11T01:42:07.183Z,5.72
2023-04-11T01:44:35.409Z,5.40
2023-04-11T01:47:02.354Z,5.50
2023-04-11T01:49:29.198Z,5.78
2023-04-11T01:51:56.170Z,5.60
2023-04-11T01:54:23.108Z,5.57
2023-04-11T01:56:50.346Z,4.88
2023-04-11T01:59:17.292Z,4.60
2023-04-11T02:01:44.241Z,4.40
2023-04-11T02:04:11.479Z,4.50
2023-04-11T02:06:38.583Z,4.25
2023-04-11T02:09:05.464Z,4.68
2023-04-11T02:11:32.420Z,4.33
2023-04-11T02:13:59.604Z,3.55
2023-04-11T02:16:26.542Z,3.78
2023-04-11T02:18:53.624Z,3.60
2023-04-11T02:21:20.664Z,3.63
2023-04-11T02:23:47.573Z,4.03
2023-04-11T02:26:14.621Z,3.90
2023-04-11T02:28:41.567Z,4.90
2023-04-11T02:31:08.783Z,4.93
2023-04-11T02:33:35.747Z,5.10
2023-04-11T02:36:02.654Z,4.70
2023-04-11T02:38:29.887Z,4.93
2023-04-11T02:40:56.829Z,5.28
2023-04-11T02:43:23.925Z,4.90
2023-04-11T02:45:54.186Z,4.72
2023-04-11T02:48:23.444Z,4.80
2023-04-11T02:50:50.321Z,4.45
2023-04-11T02:53:17.237Z,3.90
2023-04-11T02:55:44.214Z,4.05
2023-04-11T02:58:10.969Z,4.30
2023-04-11T03:00:37.908Z,4.80
2023-04-11T03:03:05.181Z,4.38
2023-04-11T03:05:32.182Z,4.82
2023-04-11T03:07:59.013Z,4.20
2023-04-11T03:10:25.913Z,4.50
2023-04-11T03:12:52.774Z,5.00
2023-04-11T03:15:19.682Z,5.03
2023-04-11T03:17:46.721Z,5.00
2023-04-11T03:20:13.618Z,4.70
2023-04-11T03:22:40.467Z,5.32
2023-04-11T03:25:07.844Z,5.47
2023-04-11T03:27:34.704Z,5.88
2023-04-11T03:30:01.544Z,5.93
2023-04-11T03:32:28.502Z,6.03
2023-04-11T03:34:55.452Z,5.70
2023-04-11T03:37:22.311Z,5.40
2023-04-11T03:39:49.368Z,5.50
2023-04-11T03:42:16.173Z,5.15
2023-04-11T03:44:43.050Z,5.00
2023-04-11T03:47:10.052Z,5.72
2023-04-11T03:49:36.890Z,5.90
2023-04-11T03:52:04.262Z,5.28
2023-04-11T03:54:31.217Z,5.13
2023-04-11T03:56:58.064Z,5.15
2023-04-11T03:59:24.929Z,4.88
2023-04-11T04:01:51.990Z,4.93
2023-04-11T04:04:19.063Z,4.78
2023-04-11T04:06:45.997Z,4.47
2023-04-11T04:09:13.004Z,4.80
2023-04-11T04:11:39.799Z,4.65
2023-04-11T04:14:06.664Z,4.97
2023-04-11T04:16:33.599Z,4.88
2023-04-11T04:19:00.398Z,4.93
2023-04-11T04:21:27.211Z,5.43
2023-04-11T04:23:54.564Z,5.40
2023-04-11T04:26:21.595Z,4.87
2023-04-11T04:28:48.511Z,6.10
2023-04-11T04:31:15.612Z,5.38
2023-04-11T04:33:43.108Z,5.50
2023-04-11T04:36:10.783Z,5.63
2023-04-11T04:38:37.687Z,6.23
2023-04-11T04:41:05.185Z,6.35
2023-04-11T04:43:32.950Z,6.95
2023-04-11T04:45:59.760Z,7.13
2023-04-11T04:48:26.622Z,7.28
2023-04-11T04:50:53.509Z,7.20
2023-04-11T04:53:20.402Z,6.85
2023-04-11T04:55:47.146Z,7.55
2023-04-11T04:58:13.946Z,6.75
2023-04-11T05:00:40.804Z,7.05
2023-04-11T05:03:07.824Z,7.13
2023-04-11T05:05:34.871Z,6.60
2023-04-11T05:08:01.880Z,6.80
2023-04-11T05:10:28.750Z,6.72
2023-04-11T05:12:55.577Z,6.47
2023-04-11T05:15:23.889Z,6.43
2023-04-11T05:17:50.747Z,6.07
2023-04-11T05:20:17.590Z,5.97
2023-04-11T05:22:44.492Z,5.97
2023-04-11T05:25:11.264Z,5.60
2023-04-11T05:27:38.130Z,4.73
2023-04-11T05:30:06.075Z,5.22
2023-04-11T05:32:33.060Z,5.32
2023-04-11T05:34:59.958Z,4.90
2023-04-11T05:37:27.009Z,4.80
2023-04-11T05:39:53.909Z,4.97
2023-04-11T05:42:20.805Z,5.13
2023-04-11T05:44:47.743Z,4.88
2023-04-11T05:47:14.596Z,5.07
2023-04-11T05:49:41.393Z,4.90
2023-04-11T05:52:08.597Z,5.47
2023-04-11T05:54:37.109Z,5.60
2023-04-11T05:57:03.920Z,5.95
2023-04-11T05:59:31.703Z,6.53
2023-04-11T06:01:59.366Z,6.03
2023-04-11T06:04:26.531Z,5.87
2023-04-11T06:06:54.250Z,5.72
2023-04-11T06:09:21.093Z,6.50
2023-04-11T06:11:47.913Z,6.63
2023-04-11T06:14:14.907Z,4.65
2023-04-11T06:16:41.790Z,5.57
2023-04-11T06:19:08.624Z,6.47
2023-04-11T06:21:35.578Z,6.05
2023-04-11T06:24:09.248Z,5.50
2023-04-11T06:26:36.252Z,5.13
2023-04-11T06:29:07.355Z,5.50
2023-04-11T06:31:34.518Z,6.20
2023-04-11T06:34:02.150Z,5.97
2023-04-11T06:36:30.325Z,5.82
2023-04-11T06:38:57.161Z,5.60
2023-04-11T06:41:24.251Z,6.40
2023-04-11T06:43:51.097Z,5.43
2023-04-11T06:46:17.927Z,4.85
2023-04-11T06:48:44.802Z,4.63
2023-04-11T06:51:11.651Z,4.70
2023-04-11T06:53:38.532Z,5.10
2023-04-11T06:56:05.858Z,4.82
2023-04-11T06:58:32.717Z,4.53
2023-04-11T07:00:59.603Z,5.15
2023-04-11T07:03:26.612Z,4.95
2023-04-11T07:05:53.482Z,4.93
2023-04-11T07:08:20.288Z,5.32
2023-04-11T07:10:47.230Z,5.80
2023-04-11T07:13:14.119Z,5.32
2023-04-11T07:15:40.924Z,6.07
2023-04-11T07:18:07.795Z,6.43
2023-04-11T07:20:34.677Z,7.40
2023-04-11T07:23:01.484Z,6.80
2023-04-11T07:25:28.952Z,6.60
2023-04-11T07:27:55.831Z,6.57
2023-04-11T07:30:23.248Z,6.60
2023-04-11T07:32:50.136Z,7.40
2023-04-11T07:35:17.133Z,7.15
2023-04-11T07:37:44.035Z,3.83
2023-04-11T07:40:11.518Z,3.13
2023-04-11T07:42:38.375Z,3.57
2023-04-11T07:45:05.997Z,4.32
2023-04-11T07:47:33.010Z,3.80
2023-04-11T07:49:59.885Z,4.38
2023-04-11T07:52:26.741Z,3.90
2023-04-11T07:54:54.408Z,4.53
2023-04-11T07:57:21.272Z,4.40
2023-04-11T07:59:48.074Z,4.35
2023-04-11T08:02:15.026Z,4.50
2023-04-11T08:04:42.369Z,5.15
2023-04-11T08:07:09.234Z,5.20
2023-04-11T08:09:36.082Z,5.63
2023-04-11T08:12:02.966Z,6.00
2023-04-11T08:14:29.799Z,5.50
2023-04-11T08:16:56.831Z,5.30
2023-04-11T08:19:23.705Z,5.77
2023-04-11T08:21:50.564Z,5.45
2023-04-11T08:24:17.376Z,6.03
2023-04-11T08:26:44.333Z,5.75
2023-04-11T08:29:11.397Z,6.10
2023-04-11T08:31:43.361Z,6.30
2023-04-11T08:34:11.017Z,7.60
2023-04-11T08:36:37.855Z,6.97
2023-04-11T08:39:04.797Z,7.95
2023-04-11T08:41:33.644Z,7.00
2023-04-11T08:44:00.966Z,7.07
2023-04-11T08:46:30.619Z,6.15
2023-04-11T08:48:57.663Z,5.70
2023-04-11T08:51:26.153Z,5.70
2023-04-11T08:53:54.591Z,5.60
2023-04-11T08:56:21.419Z,5.70
2023-04-11T08:58:48.404Z,5.38
2023-04-11T09:01:25.197Z,5.35
2023-04-11T09:03:52.128Z,6.38
2023-04-11T09:06:19.113Z,5.80
2023-04-11T09:08:46.074Z,5.20
2023-04-11T09:11:12.861Z,4.85
2023-04-11T09:13:39.636Z,5.75
2023-04-11T09:16:11.696Z,5.50
2023-04-11T09:18:43.966Z,5.63
2023-04-11T09:21:13.265Z,5.20
2023-04-11T09:23:40.745Z,5.63
2023-04-11T09:26:09.223Z,5.30
2023-04-11T09:28:46.797Z,4.82
2023-04-11T09:31:13.937Z,4.85
2023-04-11T09:33:56.084Z,4.53
2023-04-11T09:36:25.246Z,5.60
2023-04-11T09:38:52.225Z,5.65
2023-04-11T09:41:33.388Z,4.43
2023-04-11T09:44:00.808Z,4.18
2023-04-11T09:46:28.214Z,4.50
2023-04-11T09:48:55.542Z,3.75
2023-04-11T09:53:52.896Z,4.47
2023-04-11T09:56:20.635Z,4.68
2023-04-11T09:58:47.913Z,4.73
2023-04-11T10:01:14.814Z,5.47
2023-04-11T10:03:41.718Z,5.57
2023-04-11T10:06:21.586Z,5.90
2023-04-11T10:08:50.659Z,6.60
2023-04-11T10:11:18.296Z,6.27
2023-04-11T10:13:46.600Z,5.03
2023-04-11T10:16:16.214Z,5.45
2023-04-11T10:18:55.131Z,6.45
2023-04-11T10:21:27.840Z,6.50
2023-04-11T10:24:09.936Z,6.10
2023-04-11T10:26:56.925Z,6.18
2023-04-11T10:29:29.912Z,6.30
2023-04-11T10:32:17.011Z,7.35
2023-04-11T10:34:52.692Z,6.00
2023-04-11T10:37:40.311Z,5.70
2023-04-11T10:40:08.201Z,5.80
2023-04-11T10:42:43.044Z,5.90
2023-04-11T10:45:26.144Z,5.90
2023-04-11T10:47:59.069Z,5.40
2023-04-11T10:50:25.967Z,5.60
2023-04-11T10:52:58.041Z,6.07
2023-04-11T10:55:26.904Z,5.55
2023-04-11T10:58:17.509Z,5.63
2023-04-11T11:00:47.334Z,5.68
2023-04-11T11:03:28.491Z,5.80
2023-04-11T11:06:03.528Z,5.70
2023-04-11T11:08:38.354Z,5.28
2023-04-11T11:11:06.745Z,5.20
2023-04-11T11:13:43.324Z,5.75
2023-04-11T11:16:14.696Z,5.97
2023-04-11T11:18:45.631Z,5.90
2023-04-11T11:21:17.035Z,5.97
2023-04-11T11:24:01.109Z,6.05
2023-04-11T11:26:42.178Z,5.20
2023-04-11T11:29:10.373Z,6.03
2023-04-11T11:31:45.202Z,4.70
2023-04-11T11:34:23.422Z,4.90
2023-04-11T11:36:51.560Z,5.43
2023-04-11T11:39:20.430Z,4.80
2023-04-11T11:41:48.941Z,4.73
2023-04-11T11:44:22.717Z,5.35
2023-04-11T11:47:06.731Z,5.30
2023-04-11T11:49:53.584Z,4.78
2023-04-11T11:52:35.508Z,4.30
2023-04-11T11:55:03.895Z,4.87
2023-04-11T11:57:30.826Z,5.63
2023-04-11T12:00:00.706Z,5.75
2023-04-11T12:02:28.423Z,5.60
2023-04-11T12:05:04.876Z,5.50
2023-04-11T12:07:32.867Z,5.47
2023-04-11T12:10:07.470Z,5.93
2023-04-11T12:12:42.503Z,6.45
2023-04-11T12:15:29.292Z,5.32
2023-04-11T12:17:56.266Z,4.90
2023-04-11T12:20:31.198Z,4.90
2023-04-11T12:22:58.156Z,6.40
2023-04-11T12:25:25.089Z,5.50
2023-04-11T12:27:52.024Z,6.40
2023-04-11T12:30:18.981Z,5.63
2023-04-11T12:32:45.879Z,5.53
2023-04-11T12:35:13.171Z,5.43
2023-04-11T12:37:40.532Z,5.68
2023-04-11T12:40:08.223Z,4.85
2023-04-11T12:44:22.884Z,5.82
2023-04-11T12:45:22.163Z,5.87
2023-04-11T12:47:49.005Z,4.75
2023-04-11T12:50:15.849Z,5.57
2023-04-11T12:52:43.006Z,5.55
2023-04-11T12:55:10.200Z,5.63
2023-04-11T12:57:37.169Z,5.30
2023-04-11T13:00:04.417Z,5.00
2023-04-11T13:02:38.267Z,6.00
2023-04-11T13:05:09.917Z,5.97
2023-04-11T13:07:36.841Z,6.07
2023-04-11T13:10:07.568Z,5.93
2023-04-11T13:12:34.554Z,5.15
2023-04-11T13:15:01.399Z,5.45
2023-04-11T13:17:30.983Z,5.55
2023-04-11T13:19:57.921Z,5.60
2023-04-11T13:22:24.728Z,5.30
2023-04-11T13:24:51.617Z,5.10
2023-04-11T13:27:18.438Z,5.50
2023-04-11T13:29:45.229Z,5.78
2023-04-11T13:32:12.085Z,5.25
2023-04-11T13:34:39.097Z,4.90
2023-04-11T13:37:05.913Z,5.20
2023-04-11T13:39:32.762Z,5.50
2023-04-11T13:41:59.789Z,5.65
2023-04-11T13:44:29.196Z,5.63
2023-04-11T13:46:55.985Z,5.63
2023-04-11T13:49:22.950Z,5.60
2023-04-11T13:51:49.792Z,6.00
2023-04-11T13:54:16.638Z,5.60
2023-04-11T13:56:43.681Z,5.28
2023-04-11T13:59:10.525Z,4.80
2023-04-11T14:01:37.692Z,5.18
2023-04-11T14:04:04.934Z,5.07
2023-04-11T14:06:31.800Z,4.45
2023-04-11T14:08:58.681Z,5.47
2023-04-11T14:11:25.554Z,5.63
2023-04-11T14:13:52.331Z,5.28
2023-04-11T14:16:19.314Z,5.93
2023-04-11T14:18:46.251Z,6.13
2023-04-11T14:21:13.114Z,5.03
2023-04-11T14:23:39.955Z,5.13
2023-04-11T14:26:07.121Z,4.75
2023-04-11T14:28:34.017Z,5.15
2023-04-11T14:31:01.021Z,5.13
2023-04-11T14:33:27.958Z,5.45
2023-04-11T14:35:54.849Z,4.87
2023-04-11T14:38:21.720Z,5.13
2023-04-11T14:40:48.712Z,4.80
2023-04-11T14:43:15.558Z,4.93
2023-04-11T14:45:42.540Z,5.38
2023-04-11T14:48:09.598Z,4.70
2023-04-11T14:50:36.410Z,5.03
2023-04-11T14:53:03.203Z,5.15
2023-04-11T14:55:30.108Z,4.38
2023-04-11T14:57:56.950Z,4.50
2023-04-11T15:00:24.286Z,4.87
2023-04-11T15:02:53.508Z,4.80
2023-04-11T15:05:23.002Z,4.43
2023-04-11T15:07:51.289Z,5.07
2023-04-11T15:10:22.974Z,4.70
2023-04-11T15:12:50.241Z,4.20
2023-04-11T15:15:17.261Z,4.22
2023-04-11T15:17:48.539Z,4.78
2023-04-11T15:20:16.328Z,4.00
2023-04-11T15:22:45.717Z,4.60
2023-04-11T15:25:15.058Z,4.17
2023-04-11T15:27:42.285Z,4.07
2023-04-11T15:30:09.612Z,4.90
2023-04-11T15:32:36.606Z,4.82
2023-04-11T15:35:03.492Z,4.15
2023-04-11T15:37:30.305Z,4.40
2023-04-11T15:39:57.194Z,4.22
2023-04-11T15:42:24.077Z,3.88
2023-04-11T15:44:50.924Z,4.47
2023-04-11T15:47:18.134Z,4.25
2023-04-11T15:49:45.037Z,4.27
2023-04-11T15:52:11.895Z,3.70
2023-04-11T15:54:38.897Z,4.70
2023-04-11T15:57:05.844Z,5.05
2023-04-11T15:59:33.785Z,4.72
2023-04-11T16:02:00.804Z,4.40
2023-04-11T16:04:27.759Z,4.47
2023-04-11T16:06:54.604Z,4.30
2023-04-11T16:09:21.660Z,4.47
2023-04-11T16:11:48.493Z,4.50
2023-04-11T16:14:15.371Z,4.90
2023-04-11T16:16:45.378Z,5.00
2023-04-11T16:19:12.168Z,5.55
2023-04-11T16:21:39.035Z,5.60
2023-04-11T16:24:05.981Z,6.00
2023-04-11T16:26:32.898Z,5.50
2023-04-11T16:29:02.295Z,6.18
2023-04-11T16:31:29.555Z,6.45
2023-04-11T16:33:56.551Z,6.43
2023-04-11T16:36:23.897Z,6.60
2023-04-11T16:38:50.849Z,5.53
2023-04-11T16:41:17.869Z,5.90
2023-04-11T16:43:44.931Z,5.60
2023-04-11T16:46:13.630Z,4.88
2023-04-11T16:48:44.142Z,5.80
2023-04-11T16:51:11.452Z,5.33
2023-04-11T16:53:39.441Z,6.90
2023-04-11T16:56:06.534Z,7.90
2023-04-11T16:58:33.548Z,8.23
2023-04-11T17:01:01.117Z,7.45
2023-04-11T17:03:28.313Z,6.93
2023-04-11T17:05:55.361Z,7.50
2023-04-11T17:08:22.281Z,7.38
2023-04-11T17:10:49.170Z,7.45
2023-04-11T17:13:16.106Z,7.57
2023-04-11T17:15:43.180Z,6.83
2023-04-11T17:18:09.982Z,6.85
2023-04-11T17:20:36.837Z,6.50
2023-04-11T17:23:03.704Z,7.82
2023-04-11T17:25:30.522Z,7.97
2023-04-11T17:27:57.841Z,7.60
2023-04-11T17:30:24.811Z,7.55
2023-04-11T17:32:51.661Z,7.90
2023-04-11T17:35:18.692Z,7.78
2023-04-11T17:37:45.570Z,7.82
2023-04-11T17:40:12.857Z,6.77
2023-04-11T17:42:40.035Z,7.13
2023-04-11T17:45:16.528Z,7.07
2023-04-11T17:47:44.405Z,7.70
2023-04-11T17:50:16.545Z,7.20
2023-04-11T17:52:49.849Z,6.70
2023-04-11T17:55:29.665Z,6.20
2023-04-11T17:57:56.576Z,5.63
2023-04-11T18:00:23.845Z,5.93
2023-04-11T18:02:53.488Z,6.22
2023-04-11T18:05:25.361Z,6.30
2023-04-11T18:07:54.550Z,5.90
2023-04-11T18:10:21.736Z,5.82
2023-04-11T18:12:50.874Z,5.50
2023-04-11T18:15:18.288Z,4.40
2023-04-11T18:17:45.469Z,5.40
2023-04-11T18:20:13.739Z,5.97
2023-04-11T18:29:00.908Z,6.70
2023-04-11T18:31:27.897Z,7.40
2023-04-11T18:33:55.279Z,8.13
2023-04-11T18:39:54.237Z,10.48
2023-04-11T18:48:48.389Z,8.77
2023-04-11T18:51:15.381Z,8.32
2023-04-11T18:53:42.332Z,7.57
2023-04-11T18:56:10.411Z,9.18
2023-04-11T18:58:39.566Z,8.30
2023-04-11T19:01:14.792Z,8.00
2023-04-11T19:03:43.483Z,8.30
2023-04-11T19:06:13.554Z,8.38
2023-04-11T19:08:40.513Z,7.82
2023-04-11T19:11:10.561Z,8.47
2023-04-11T19:13:37.511Z,7.70
2023-04-11T19:16:05.112Z,8.38
2023-04-11T19:18:32.291Z,8.50
2023-04-11T19:20:59.256Z,9.13
2023-04-11T19:23:27.366Z,9.20
2023-04-11T19:25:54.436Z,10.07
2023-04-11T19:28:21.451Z,9.38
2023-04-11T19:30:48.949Z,9.27
2023-04-11T19:33:15.919Z,10.00
2023-04-11T19:35:42.881Z,10.83
2023-04-11T19:38:09.926Z,11.15
2023-04-11T19:40:36.901Z,10.63
2023-04-11T19:43:04.060Z,11.82
2023-04-11T19:45:32.255Z,11.25
2023-04-11T19:47:59.651Z,11.43
2023-04-11T19:50:26.520Z,12.15
2023-04-11T19:52:55.303Z,11.38
2023-04-11T19:55:22.599Z,11.27
2023-04-11T19:57:49.426Z,10.90
2023-04-11T20:00:16.686Z,11.73
2023-04-11T20:02:46.256Z,11.40
2023-04-11T20:05:20.232Z,10.68
2023-04-11T20:07:47.205Z,10.15
2023-04-11T20:10:15.508Z,10.25
2023-04-11T20:12:42.384Z,9.90
2023-04-11T20:15:09.737Z,10.23
2023-04-11T20:17:36.688Z,10.23
2023-04-11T20:20:03.680Z,10.55
2023-04-11T20:22:31.402Z,11.25
2023-04-11T20:24:58.457Z,10.33
2023-04-11T20:27:25.313Z,9.50
2023-04-11T20:29:52.300Z,8.63
2023-04-11T20:32:19.157Z,7.85
2023-04-11T20:34:46.055Z,7.72
2023-04-11T20:37:13.090Z,7.47
2023-04-11T20:39:39.927Z,7.72
2023-04-11T20:42:09.830Z,7.20
2023-04-11T20:44:36.881Z,7.45
2023-04-11T20:47:03.699Z,7.78
2023-04-11T20:49:30.518Z,7.97
2023-04-11T20:51:57.432Z,8.43
2023-04-11T20:54:24.346Z,8.77
2023-04-11T20:56:51.247Z,6.75
2023-04-11T20:59:18.236Z,6.75
2023-04-11T21:01:45.172Z,7.90
2023-04-11T21:04:12.044Z,7.70
2023-04-11T21:06:39.069Z,7.10
2023-04-11T21:09:05.954Z,7.82
2023-04-11T21:11:33.204Z,8.82
2023-04-11T21:14:00.155Z,7.37
2023-04-11T21:16:27.117Z,8.77
2023-04-11T21:18:54.042Z,8.60
2023-04-11T21:21:22.696Z,9.68
2023-04-11T21:23:49.516Z,9.90
2023-04-11T21:26:16.438Z,9.33
2023-04-11T21:28:43.942Z,9.48
2023-04-11T21:31:10.789Z,8.60
2023-04-11T21:33:37.591Z,7.85
2023-04-11T21:36:04.848Z,7.72
2023-04-11T21:38:31.631Z,7.90
2023-04-11T21:40:58.479Z,8.25
2023-04-11T21:43:25.465Z,8.15
2023-04-11T21:45:52.324Z,7.47
2023-04-11T21:48:19.185Z,6.72
2023-04-11T21:50:46.140Z,6.90
2023-04-11T21:53:13.286Z,6.75
2023-04-11T21:55:48.877Z,6.38
2023-04-11T21:58:26.218Z,7.55
2023-04-11T22:00:55.831Z,7.53
2023-04-11T22:03:23.020Z,8.30
2023-04-11T22:05:51.128Z,8.23
2023-04-11T22:08:19.759Z,7.97
2023-04-11T22:10:47.727Z,8.18
2023-04-11T22:13:17.259Z,8.50
2023-04-11T22:15:45.881Z,8.50
2023-04-11T22:18:13.258Z,8.80
2023-04-11T22:20:41.629Z,8.77
2023-04-11T22:23:08.529Z,8.27
2023-04-11T22:25:38.594Z,8.02
2023-04-11T22:28:05.580Z,8.90
2023-04-11T22:30:32.553Z,8.70
2023-04-11T22:32:59.845Z,9.23
2023-04-11T22:35:26.732Z,9.68
2023-04-11T22:37:55.020Z,9.38
2023-04-11T22:40:21.976Z,9.13
2023-04-11T22:42:50.358Z,8.32
2023-04-11T22:45:17.578Z,8.10
2023-04-11T22:47:44.448Z,8.55
2023-04-11T22:50:12.495Z,8.70
2023-04-11T22:52:39.559Z,8.27
2023-04-11T22:55:06.882Z,6.70
2023-04-11T22:57:35.155Z,6.93
2023-04-11T23:00:02.316Z,8.48
2023-04-11T23:02:29.560Z,8.35
2023-04-11T23:04:56.497Z,8.63
2023-04-11T23:07:26.182Z,7.80
2023-04-11T23:09:53.051Z,8.90
2023-04-11T23:12:19.937Z,8.65
2023-04-11T23:14:47.051Z,8.40
2023-04-11T23:17:13.932Z,8.77
2023-04-11T23:19:41.020Z,8.50
2023-04-11T23:22:23.709Z,8.95
2023-04-11T23:24:50.576Z,9.30
2023-04-11T23:27:17.352Z,8.93
2023-04-11T23:29:52.114Z,8.40
2023-04-11T23:32:20.716Z,9.20
2023-04-11T23:34:47.521Z,9.75
2023-04-11T23:37:14.478Z,9.57
2023-04-11T23:39:41.752Z,10.00
2023-04-11T23:42:08.579Z,9.73
2023-04-11T23:44:35.464Z,10.00
2023-04-11T23:47:02.309Z,8.98
2023-04-11T23:49:29.232Z,9.45
2023-04-11T23:51:56.157Z,9.70
2023-04-11T23:54:22.998Z,9.03
2023-04-11T23:56:49.853Z,8.70
2023-04-11T23:59:16.784Z,8.93
